Renton, United Kingdom
Current Conditions -  °F | °C
As of 4:50 PM on Thursday 27 Nov 2014 (Local Time) from EGPF Reporting Station
Drizzle Drizzle  
Wind Chill: 46°   Ceiling: 600
Heat Index: 46°   Visibility: 3mi
Dew Point: 46°   Wind: 3mph
Humidity: 100%   Direction: NA
Pressure: 29.56"   Gusts: NA
Location:  55.97°N, 4.58°W
Report Text: EGPF 271650Z VRB03KT 5000 -DZ BR BKN006 OVC010 08/08 Q1001
Loading
Personal Weather Stations






























Interactive Weather Map New forecast layout! Learn more

10-Day Weather Forecast

Advertisements
Track Severe Weather on mobile